Time;durP1;ratioP1;P1;durP2;ratioP2;P2;SDS_P1;SDS_P2;PMS_P1;PMS_P2;Temp;Humidity;BMP_temperature;BMP_pressure;BME280_temperature;BME280_humidity;BME280_pressure;Samples;Min_cycle;Max_cycle;Signal;HPM_P1;HPM_P2
2021/01/08 00:01:53;;;;;;;14.80;13.30;;;;;;;4.75;60.05;97439.38;8476057;28;20539;-80
2021/01/08 00:05:55;;;;;;;14.33;12.83;;;;;;;4.66;60.01;97440.50;8472439;28;20205;-79
2021/01/08 00:09:57;;;;;;;14.57;13.17;;;;;;;4.67;60.25;97441.34;8471411;28;20198;-79
2021/01/08 00:14:00;;;;;;;14.23;12.73;;;;;;;4.77;59.98;97431.66;8470715;28;20232;-79
2021/01/08 00:18:02;;;;;;;14.13;12.23;;;;;;;4.80;60.03;97434.97;8470730;28;20233;-81
2021/01/08 00:22:04;;;;;;;13.43;12.03;;;;;;;4.58;60.41;97442.44;8470451;28;20202;-82
2021/01/08 00:26:05;;;;;;;16.48;14.88;;;;;;;6.54;67.44;97442.09;8469186;28;20409;-80
2021/01/08 00:30:10;;;;;;;13.70;12.30;;;;;;;5.63;59.66;97434.09;8471989;28;20663;-81
2021/01/08 00:34:14;;;;;;;12.97;11.70;;;;;;;5.26;59.70;97437.84;8470093;28;20213;-80
2021/01/08 00:38:16;;;;;;;13.57;12.17;;;;;;;5.19;59.82;97438.94;8470624;28;20204;-80
2021/01/08 00:42:18;;;;;;;12.47;11.27;;;;;;;5.16;59.88;97432.16;8469547;28;20273;-79
2021/01/08 00:46:21;;;;;;;13.27;11.30;;;;;;;5.02;59.99;97430.00;8468868;28;20210;-80
2021/01/08 00:50:23;;;;;;;12.63;11.33;;;;;;;4.98;60.24;97430.16;8468943;28;20202;-80
2021/01/08 00:54:24;;;;;;;13.67;12.27;;;;;;;4.89;60.51;97432.13;8468832;28;20315;-79
2021/01/08 00:58:26;;;;;;;13.20;11.87;;;;;;;4.86;60.42;97429.66;8467801;28;20653;-79
2021/01/08 01:02:29;;;;;;;12.93;11.67;;;;;;;4.89;60.57;97434.69;8469912;28;20206;-79
2021/01/08 01:06:32;;;;;;;13.43;12.03;;;;;;;4.79;60.54;97432.44;8471735;28;20261;-79
2021/01/08 01:10:34;;;;;;;12.87;11.57;;;;;;;4.85;61.05;97437.38;8469331;28;20194;-80
2021/01/08 01:14:36;;;;;;;12.50;11.20;;;;;;;4.77;60.84;97447.03;8469146;28;20221;-80
2021/01/08 01:18:38;;;;;;;12.07;10.87;;;;;;;4.63;61.75;97452.56;8473938;28;20505;-80
2021/01/08 01:22:42;;;;;;;11.20;10.10;;;;;;;4.78;61.14;97452.13;8471505;28;20202;-79
2021/01/08 01:26:44;;;;;;;11.20;9.50;;;;;;;4.79;61.43;97453.78;8476553;27;20300;-81
2021/01/08 01:30:46;;;;;;;12.57;9.93;;;;;;;4.83;61.41;97460.50;8475091;27;20198;-80
2021/01/08 01:34:49;;;;;;;9.83;8.83;;;;;;;4.80;61.28;97459.78;8474394;28;20225;-77
2021/01/08 01:38:51;;;;;;;9.97;8.97;;;;;;;4.74;61.64;97463.38;8473896;28;20560;-82
2021/01/08 01:42:53;;;;;;;9.60;8.60;;;;;;;4.78;61.48;97464.97;8471327;28;20194;-73
2021/01/08 01:46:55;;;;;;;9.40;8.50;;;;;;;4.73;61.37;97471.94;8466971;28;20217;-73
2021/01/08 01:50:57;;;;;;;9.10;8.20;;;;;;;4.69;61.63;97462.66;8469771;28;20331;-73
2021/01/08 01:54:59;;;;;;;7.90;7.17;;;;;;;4.61;61.47;97462.03;8468569;28;20252;-73
2021/01/08 01:59:01;;;;;;;7.60;6.90;;;;;;;4.70;61.23;97461.75;8469547;28;20205;-73
2021/01/08 02:03:07;;;;;;;7.87;7.17;;;;;;;4.68;60.69;97461.81;8468432;28;20216;-73
2021/01/08 02:07:10;;;;;;;8.70;7.90;;;;;;;4.74;61.15;97462.50;8467752;28;20499;-73
2021/01/08 02:11:14;;;;;;;7.80;7.10;;;;;;;4.57;61.14;97468.97;8468979;28;20233;-73
2021/01/08 02:15:15;;;;;;;7.70;7.00;;;;;;;4.70;60.97;97466.88;8467804;28;20550;-73
2021/01/08 02:19:22;;;;;;;7.60;6.73;;;;;;;4.56;60.09;97464.72;8467075;28;20315;-73
2021/01/08 02:23:33;;;;;;;7.37;6.67;;;;;;;4.52;60.00;97463.13;8467537;28;20186;-73
2021/01/08 02:27:36;;;;;;;7.20;6.50;;;;;;;4.37;60.72;97471.25;8468430;28;20205;-73
2021/01/08 02:31:38;;;;;;;7.33;6.63;;;;;;;4.48;60.70;97464.94;8466479;28;20194;-73
2021/01/08 02:35:41;;;;;;;6.87;6.17;;;;;;;4.44;60.92;97460.78;8466950;28;20229;-73
2021/01/08 02:39:44;;;;;;;7.33;6.10;;;;;;;4.63;59.70;97470.53;8466933;28;20197;-73
2021/01/08 02:43:47;;;;;;;6.90;6.20;;;;;;;4.48;60.01;97461.53;8467535;28;20194;-73
2021/01/08 02:47:49;;;;;;;6.43;5.83;;;;;;;4.46;59.62;97456.44;8467539;28;20205;-73
2021/01/08 02:51:51;;;;;;;7.33;6.50;;;;;;;4.34;59.97;97454.25;8467365;28;20202;-73
2021/01/08 02:55:57;;;;;;;6.77;6.17;;;;;;;4.37;59.52;97455.88;8466328;28;20269;-73
2021/01/08 03:00:00;;;;;;;7.70;6.60;;;;;;;4.48;59.42;97464.09;8467328;28;20190;-73
2021/01/08 03:04:02;;;;;;;6.93;6.23;;;;;;;4.40;59.46;97463.44;8466293;28;20201;-73
2021/01/08 03:08:04;;;;;;;7.17;6.47;;;;;;;4.43;58.83;97453.13;8467045;28;20201;-73
2021/01/08 03:12:07;;;;;;;6.70;6.03;;;;;;;4.31;58.87;97457.72;8465631;28;20267;-73
2021/01/08 03:16:09;;;;;;;6.57;5.90;;;;;;;4.38;58.85;97455.84;8483906;27;20225;-73
2021/01/08 03:20:12;;;;;;;7.47;6.63;;;;;;;4.41;58.50;97455.72;8498928;27;20236;-73
2021/01/08 03:24:14;;;;;;;7.67;6.27;;;;;;;4.47;58.46;97457.28;8499977;27;20201;-73
2021/01/08 03:28:17;;;;;;;6.47;5.87;;;;;;;4.35;58.47;97455.06;8498990;27;20197;-73
2021/01/08 03:32:20;;;;;;;7.70;6.70;;;;;;;4.43;58.50;97453.13;8499576;27;20197;-73
2021/01/08 03:36:21;;;;;;;7.83;7.03;;;;;;;4.33;58.83;97455.09;8500630;27;20309;-74
2021/01/08 03:40:23;;;;;;;8.17;7.37;;;;;;;4.51;58.69;97461.44;8499083;27;20193;-73
2021/01/08 03:44:25;;;;;;;8.77;7.30;;;;;;;4.13;58.79;97462.47;8499267;27;20201;-73
2021/01/08 03:48:28;;;;;;;8.70;7.77;;;;;;;4.26;58.56;97474.09;8499221;27;20211;-73
2021/01/08 03:52:29;;;;;;;9.23;7.63;;;;;;;4.31;57.98;97456.88;8498435;27;20212;-73
2021/01/08 03:56:31;;;;;;;9.53;7.93;;;;;;;4.28;57.87;97462.06;8499436;27;20635;-73
2021/01/08 04:00:33;;;;;;;9.30;8.00;;;;;;;4.33;58.12;97465.34;8498605;27;20197;-73
2021/01/08 04:04:35;;;;;;;8.47;7.53;;;;;;;4.35;58.18;97458.47;8498051;27;20201;-73
2021/01/08 04:08:37;;;;;;;8.40;7.50;;;;;;;4.19;57.90;97464.88;8498390;27;20627;-73
2021/01/08 04:12:39;;;;;;;9.00;8.03;;;;;;;4.30;57.32;97453.47;8499050;27;20656;-73
2021/01/08 04:16:41;;;;;;;8.47;7.57;;;;;;;4.24;57.12;97460.47;8498288;27;20225;-73
2021/01/08 04:20:45;;;;;;;7.80;6.70;;;;;;;4.28;57.02;97462.06;8497722;27;20253;-73
2021/01/08 04:24:47;;;;;;;8.30;7.50;;;;;;;4.18;56.53;97463.22;8497838;27;20204;-73
2021/01/08 04:28:49;;;;;;;8.67;7.13;;;;;;;4.18;56.93;97471.72;8496059;27;20205;-73
2021/01/08 04:32:51;;;;;;;7.67;6.93;;;;;;;4.39;56.35;97465.19;8497539;27;20216;-73
2021/01/08 04:36:53;;;;;;;8.70;7.33;;;;;;;4.33;55.95;97462.78;8497816;27;20220;-73
2021/01/08 04:40:56;;;;;;;8.60;7.70;;;;;;;4.05;56.46;97470.38;8497221;27;20205;-73
2021/01/08 04:44:58;;;;;;;11.70;7.77;;;;;;;4.13;56.35;97473.56;8498324;27;20608;-73
2021/01/08 04:49:01;;;;;;;9.43;7.87;;;;;;;4.23;55.67;97467.34;8497013;27;20597;-73
2021/01/08 04:53:04;;;;;;;9.30;7.97;;;;;;;4.18;55.80;97468.34;8497000;27;20204;-73
2021/01/08 04:57:07;;;;;;;10.17;7.63;;;;;;;4.14;55.70;97467.56;8497091;28;20228;-73
2021/01/08 05:01:09;;;;;;;9.33;8.40;;;;;;;4.29;55.94;97467.16;8496934;28;20201;-73
2021/01/08 05:05:13;;;;;;;8.97;7.90;;;;;;;4.36;55.39;97459.28;8498268;28;20205;-73
2021/01/08 05:09:15;;;;;;;8.40;7.53;;;;;;;4.28;55.44;97465.50;8498160;28;20197;-73
2021/01/08 05:13:17;;;;;;;9.40;8.40;;;;;;;4.33;55.59;97459.41;8497783;28;20228;-73
2021/01/08 05:17:29;;;;;;;9.63;8.20;;;;;;;4.28;55.51;97460.38;8497803;28;20232;-73
2021/01/08 05:21:32;;;;;;;8.70;7.57;;;;;;;4.39;55.25;97454.09;8498389;28;20722;-73
2021/01/08 05:25:34;;;;;;;9.03;8.10;;;;;;;4.30;55.05;97450.91;8496145;28;20550;-73
2021/01/08 05:29:36;;;;;;;10.13;8.40;;;;;;;3.94;56.00;97463.00;8497915;28;20194;-73
2021/01/08 05:33:40;;;;;;;9.53;7.93;;;;;;;4.32;55.51;97461.09;8498001;28;20237;-73
2021/01/08 05:37:46;;;;;;;9.80;8.23;;;;;;;4.32;55.34;97455.97;8497871;28;20240;-73
2021/01/08 05:41:49;;;;;;;8.83;7.93;;;;;;;4.29;55.56;97468.91;8497551;28;20273;-73
2021/01/08 05:45:50;;;;;;;8.93;8.07;;;;;;;4.31;55.81;97462.00;8496354;28;20290;-73
2021/01/08 05:49:56;;;;;;;13.83;8.80;;;;;;;4.34;55.83;97464.50;8497205;28;20197;-73
2021/01/08 05:53:59;;;;;;;9.57;8.40;;;;;;;4.41;55.52;97458.28;8497277;28;20615;-73
2021/01/08 05:58:05;;;;;;;9.57;8.57;;;;;;;4.39;55.89;97454.94;8497074;28;20579;-73
2021/01/08 06:02:08;;;;;;;9.07;8.00;;;;;;;4.43;55.62;97460.81;8497254;27;20629;-73
2021/01/08 06:06:11;;;;;;;9.03;8.13;;;;;;;4.46;55.74;97455.63;8502614;27;20270;-73
2021/01/08 06:10:16;;;;;;;10.17;8.90;;;;;;;4.38;55.94;97460.09;8502297;27;20205;-73
2021/01/08 06:14:19;;;;;;;9.73;8.47;;;;;;;4.14;56.43;97474.44;8502194;27;20220;-73
2021/01/08 06:18:23;;;;;;;9.93;8.87;;;;;;;4.30;56.23;97481.69;8502535;27;20305;-73
2021/01/08 06:22:24;;;;;;;10.17;8.30;;;;;;;4.19;56.54;97483.69;8502624;27;20590;-73
2021/01/08 06:26:27;;;;;;;9.47;8.47;;;;;;;4.28;56.63;97482.56;8501431;27;20205;-73
2021/01/08 06:30:33;;;;;;;9.83;8.83;;;;;;;4.10;56.57;97478.78;8502205;27;20596;-73
2021/01/08 06:34:44;;;;;;;9.27;7.83;;;;;;;4.27;56.46;97476.63;8501959;27;20189;-73
2021/01/08 06:38:49;;;;;;;10.07;8.40;;;;;;;4.10;57.18;97474.50;8502143;27;20507;-73
2021/01/08 06:42:59;;;;;;;9.83;8.07;;;;;;;4.23;56.84;97489.56;8500713;27;20209;-73
2021/01/08 06:47:03;;;;;;;9.13;8.23;;;;;;;4.27;57.25;97488.59;8502589;27;20220;-73
2021/01/08 06:51:07;;;;;;;8.87;7.97;;;;;;;4.39;56.80;97488.25;8501795;27;20197;-73
2021/01/08 06:55:14;;;;;;;8.40;7.53;;;;;;;4.26;56.97;97492.88;8502139;27;20224;-73
2021/01/08 06:59:17;;;;;;;8.57;7.67;;;;;;;4.34;57.16;97487.56;8501860;27;20196;-73
2021/01/08 07:03:22;;;;;;;8.57;7.67;;;;;;;4.23;57.48;97489.56;8501077;27;20517;-72
2021/01/08 07:07:26;;;;;;;10.43;8.30;;;;;;;4.23;57.31;97485.28;8499729;27;20201;-73
2021/01/08 07:11:27;;;;;;;8.93;7.70;;;;;;;4.39;57.49;97483.13;8499893;27;20292;-73
2021/01/08 07:15:32;;;;;;;9.40;7.73;;;;;;;4.36;57.12;97485.81;8499416;27;20232;-73
2021/01/08 07:19:39;;;;;;;8.60;7.80;;;;;;;4.33;57.10;97485.03;8500370;27;20204;-73
2021/01/08 07:23:41;;;;;;;8.60;7.40;;;;;;;4.38;57.29;97491.72;8499684;27;20201;-73
2021/01/08 07:27:44;;;;;;;9.23;8.10;;;;;;;4.38;57.30;97501.97;8499523;27;20201;-73
2021/01/08 07:31:45;;;;;;;8.70;7.80;;;;;;;4.35;57.33;97502.03;8499818;27;20197;-73
2021/01/08 07:35:48;;;;;;;9.70;7.77;;;;;;;4.45;56.59;97500.06;8499170;27;20221;-73
2021/01/08 07:40:01;;;;;;;8.33;7.50;;;;;;;4.39;56.77;97503.66;8500524;27;20280;-73
2021/01/08 07:44:05;;;;;;;12.23;7.97;;;;;;;4.53;56.83;97508.38;8500485;27;20182;-73
2021/01/08 07:48:16;;;;;;;8.87;7.97;;;;;;;4.39;57.35;97511.34;8499307;27;20208;-73
2021/01/08 07:52:37;;;;;;;8.60;7.80;;;;;;;4.46;56.93;97520.56;8498865;27;20185;-73
2021/01/08 07:57:03;;;;;;;9.67;7.87;;;;;;;4.46;57.07;97519.72;8498564;27;20228;-73
2021/01/08 08:01:05;;;;;;;10.00;9.00;;;;;;;4.36;57.41;97519.13;8498237;27;20193;-73
2021/01/08 08:05:09;;;;;;;8.93;8.00;;;;;;;4.39;57.56;97521.59;8497187;27;20716;-73
2021/01/08 08:09:13;;;;;;;10.40;8.20;;;;;;;4.40;57.64;97525.84;8498554;27;20192;-73
2021/01/08 08:13:15;;;;;;;9.17;8.23;;;;;;;4.54;57.99;97528.03;8498105;27;20220;-73
2021/01/08 08:17:17;;;;;;;9.70;8.20;;;;;;;4.53;57.98;97525.50;8497369;27;20227;-73
2021/01/08 08:21:19;;;;;;;8.87;7.97;;;;;;;4.60;58.01;97537.28;8498400;27;20616;-73
2021/01/08 08:25:27;;;;;;;8.33;7.53;;;;;;;4.61;58.36;97534.69;8496522;27;20358;-73
2021/01/08 08:29:29;;;;;;;8.93;7.97;;;;;;;4.63;58.22;97532.09;8496107;27;20197;-72
2021/01/08 08:33:30;;;;;;;9.20;8.27;;;;;;;4.61;58.05;97539.81;8490230;27;20687;-72
2021/01/08 08:37:32;;;;;;;9.33;8.40;;;;;;;4.70;58.32;97539.56;8496034;27;20569;-72
2021/01/08 08:41:37;;;;;;;10.27;8.43;;;;;;;4.66;58.35;97542.25;8496273;27;20205;-72
2021/01/08 08:45:39;;;;;;;9.57;8.57;;;;;;;4.26;59.72;97549.25;8494308;27;20302;-72
2021/01/08 08:49:41;;;;;;;8.97;7.93;;;;;;;4.76;58.27;97547.97;8495590;27;20280;-73
2021/01/08 08:53:43;;;;;;;9.90;8.87;;;;;;;4.65;58.77;97549.09;8495754;27;20196;-72
2021/01/08 08:57:46;;;;;;;9.03;8.13;;;;;;;4.60;58.44;97556.06;8495353;27;20216;-73
2021/01/08 09:01:47;;;;;;;8.93;7.80;;;;;;;4.66;58.76;97550.81;8497633;28;20320;-73
2021/01/08 09:05:51;;;;;;;9.53;8.23;;;;;;;4.87;59.05;97548.50;8496511;28;20259;-73
2021/01/08 09:09:53;;;;;;;9.17;8.27;;;;;;;4.86;58.73;97545.09;8496212;28;20212;-73
2021/01/08 09:13:58;;;;;;;9.87;8.87;;;;;;;4.96;58.70;97553.38;8496941;28;20542;-73
2021/01/08 09:18:09;;;;;;;9.23;8.07;;;;;;;4.90;58.91;97558.69;8494655;28;20217;-73
2021/01/08 09:22:28;;;;;;;11.30;8.50;;;;;;;4.94;58.78;97562.00;8495647;28;20189;-73
2021/01/08 09:26:30;;;;;;;9.10;7.97;;;;;;;4.84;58.71;97562.28;8495575;27;20648;-73
2021/01/08 09:30:37;;;;;;;8.90;8.00;;;;;;;4.64;59.27;97567.09;8495900;28;20194;-73
2021/01/08 09:34:39;;;;;;;9.00;8.20;;;;;;;4.58;59.95;97568.09;8497262;28;20593;-72
2021/01/08 09:38:47;;;;;;;8.83;7.70;;;;;;;4.69;59.51;97567.81;8501297;27;20220;-74
2021/01/08 09:42:49;;;;;;;9.33;8.03;;;;;;;4.65;59.91;97576.50;8503798;27;20312;-73
2021/01/08 09:46:56;;;;;;;8.73;7.77;;;;;;;4.57;59.99;97573.25;8502802;27;20211;-74
2021/01/08 09:51:02;;;;;;;10.60;9.60;;;;;;;4.64;59.72;97577.34;8503773;27;20625;-74
2021/01/08 09:55:05;;;;;;;10.87;9.57;;;;;;;4.67;59.68;97577.28;8503731;27;20327;-74
2021/01/08 09:59:12;;;;;;;8.53;7.63;;;;;;;4.63;59.47;97568.00;8494099;27;20240;-73
2021/01/08 10:03:19;;;;;;;8.90;8.10;;;;;;;4.75;59.84;97565.09;8503559;27;20221;-73
2021/01/08 10:07:20;;;;;;;7.93;7.23;;;;;;;4.78;60.10;97564.16;8502788;27;20197;-73
2021/01/08 10:11:26;;;;;;;27.07;8.13;;;;;;;6.98;88.06;97562.34;8503196;27;20221;-70
2021/01/08 10:15:35;;;;;;;12.07;8.27;;;;;;;8.36;75.28;97556.97;8502299;27;20250;-71
2021/01/08 10:19:39;;;;;;;9.60;8.60;;;;;;;7.35;55.77;97548.94;8502789;27;20601;-73
2021/01/08 10:23:42;;;;;;;9.50;8.60;;;;;;;6.33;56.73;97558.63;8502295;27;20495;-72
2021/01/08 10:27:44;;;;;;;9.20;8.33;;;;;;;6.17;57.14;97555.69;8502182;27;20201;-72
2021/01/08 10:31:45;;;;;;;8.67;7.67;;;;;;;5.77;58.21;97552.69;8502490;27;20639;-72
2021/01/08 10:35:51;;;;;;;7.67;6.97;;;;;;;5.72;58.38;97553.72;8501596;27;20225;-72
2021/01/08 10:39:53;;;;;;;7.50;6.80;;;;;;;5.52;58.14;97542.34;8501591;27;20197;-72
2021/01/08 10:43:54;;;;;;;8.37;7.60;;;;;;;5.25;59.21;97550.00;8500897;27;20277;-72
2021/01/08 10:47:56;;;;;;;8.00;7.30;;;;;;;5.40;59.63;97540.97;8499773;27;20205;-72
2021/01/08 10:51:59;;;;;;;7.40;6.70;;;;;;;5.31;59.46;97545.53;8500323;27;20208;-72
2021/01/08 10:56:02;;;;;;;7.77;7.07;;;;;;;5.27;59.77;97544.78;8500214;27;20553;-72
2021/01/08 11:00:08;;;;;;;6.83;6.23;;;;;;;5.35;59.33;97544.56;8500473;27;20197;-72
2021/01/08 11:04:11;;;;;;;6.97;6.37;;;;;;;5.32;59.72;97542.09;8501663;27;20193;-72
2021/01/08 11:08:13;;;;;;;6.83;6.10;;;;;;;5.41;60.01;97541.81;8497718;27;20211;-72
2021/01/08 11:12:15;;;;;;;8.53;7.73;;;;;;;5.30;60.42;97537.00;8499227;27;20232;-72
2021/01/08 11:16:17;;;;;;;8.10;7.30;;;;;;;5.33;60.21;97536.06;8499872;27;20221;-72
2021/01/08 11:20:18;;;;;;;7.20;6.50;;;;;;;5.32;60.75;97532.66;8499165;27;20231;-72
2021/01/08 11:24:21;;;;;;;7.47;6.77;;;;;;;5.39;60.46;97526.47;8499482;27;20527;-71
2021/01/08 11:28:23;;;;;;;6.90;6.30;;;;;;;5.21;61.24;97529.56;8499754;27;20212;-76
2021/01/08 11:32:25;;;;;;;6.60;5.93;;;;;;;5.38;60.90;97531.63;8499698;27;20201;-75
2021/01/08 11:36:27;;;;;;;5.93;5.43;;;;;;;5.34;61.23;97527.47;8511080;27;20220;-71
2021/01/08 11:40:29;;;;;;;6.77;6.07;;;;;;;7.17;63.62;97527.28;8500741;27;20632;-75
2021/01/08 11:44:31;;;;;;;7.97;7.17;;;;;;;6.14;59.77;97520.66;8508864;27;20197;-78
2021/01/08 11:48:33;;;;;;;7.47;6.77;;;;;;;5.82;59.90;97530.22;8510170;27;20208;-73
2021/01/08 11:52:35;;;;;;;5.13;4.73;;;;;;;5.75;59.66;97518.50;8503971;27;20205;-75
2021/01/08 11:56:38;;;;;;;15.53;12.83;;;;;;;5.80;59.59;97531.19;8502557;27;20228;-75
2021/01/08 12:00:40;;;;;;;18.33;15.17;;;;;;;5.65;59.73;97532.50;8503782;27;20196;-76
2021/01/08 12:04:42;;;;;;;12.63;11.30;;;;;;;5.55;60.04;97529.38;8504947;27;20201;-76
2021/01/08 12:08:44;;;;;;;9.90;9.00;;;;;;;5.58;60.39;97534.44;8505965;27;20228;-76
2021/01/08 12:12:49;;;;;;;6.43;5.93;;;;;;;5.60;59.87;97531.81;8503706;27;20220;-77
2021/01/08 12:16:51;;;;;;;4.67;4.27;;;;;;;5.36;60.20;97534.25;8505748;27;20213;-77
2021/01/08 12:20:53;;;;;;;5.40;4.90;;;;;;;5.32;60.91;97542.94;8503373;27;20197;-74
2021/01/08 12:24:55;;;;;;;4.90;4.50;;;;;;;5.33;60.26;97544.63;8504531;27;20632;-74
2021/01/08 12:28:57;;;;;;;4.30;4.00;;;;;;;5.29;60.89;97545.56;8504030;27;20200;-74
2021/01/08 12:33:00;;;;;;;4.60;4.20;;;;;;;5.14;61.02;97543.47;8501361;27;20273;-76
2021/01/08 12:37:03;;;;;;;5.30;4.80;;;;;;;5.30;60.55;97547.28;8497705;27;20241;-76
2021/01/08 12:41:05;;;;;;;12.60;8.13;;;;;;;5.25;60.85;97552.56;8496992;27;20571;-75
2021/01/08 12:45:09;;;;;;;7.20;6.10;;;;;;;5.19;61.48;97549.31;8497385;27;20193;-73
2021/01/08 12:49:11;;;;;;;7.50;6.80;;;;;;;6.00;59.03;97549.41;8492717;27;20432;-70
2021/01/08 12:53:13;;;;;;;6.23;5.47;;;;;;;5.36;60.74;97539.38;8496524;27;20197;-70
2021/01/08 12:57:14;;;;;;;5.63;5.13;;;;;;;5.48;60.74;97540.72;8496132;27;20229;-72
2021/01/08 13:01:18;;;;;;;5.77;5.27;;;;;;;5.66;61.08;97545.31;8496193;28;20193;-69
2021/01/08 13:05:20;;;;;;;5.63;5.00;;;;;;;5.85;62.51;97542.16;8495995;28;20197;-70
2021/01/08 13:09:24;;;;;;;4.73;4.33;;;;;;;5.48;60.46;97551.00;8497088;28;20208;-68
2021/01/08 13:13:28;;;;;;;4.60;4.20;;;;;;;5.28;60.97;97560.16;8501974;27;20224;-70
2021/01/08 13:17:31;;;;;;;4.17;3.77;;;;;;;5.29;60.88;97549.00;8504238;27;20232;-69
2021/01/08 13:21:33;;;;;;;5.30;4.80;;;;;;;5.41;61.83;97546.97;8503482;27;20228;-70
2021/01/08 13:25:35;;;;;;;5.17;4.67;;;;;;;5.18;61.45;97550.19;8503803;27;20332;-68
2021/01/08 13:29:37;;;;;;;4.40;4.00;;;;;;;5.16;61.59;97562.22;8503294;27;20209;-69
2021/01/08 13:33:39;;;;;;;4.30;4.00;;;;;;;5.26;61.62;97566.22;8503276;27;20201;-74
2021/01/08 13:37:41;;;;;;;4.37;3.97;;;;;;;5.15;61.88;97570.81;8503656;27;20220;-72
2021/01/08 13:41:57;;;;;;;6.27;4.90;;;;;;;5.20;61.91;97568.97;8504205;27;20193;-73
2021/01/08 13:45:59;;;;;;;4.27;3.87;;;;;;;5.07;62.05;97571.88;8502821;27;20189;-74
2021/01/08 13:50:03;;;;;;;4.00;3.70;;;;;;;5.27;61.95;97565.31;8503128;27;20495;-73
2021/01/08 13:54:05;;;;;;;4.70;4.30;;;;;;;5.02;62.29;97573.72;8502878;27;20513;-72
2021/01/08 13:58:06;;;;;;;4.80;4.40;;;;;;;5.13;62.26;97572.59;8503314;27;20277;-73
2021/01/08 14:02:08;;;;;;;5.30;4.80;;;;;;;5.19;62.05;97578.38;8502806;27;20221;-73
2021/01/08 14:06:17;;;;;;;4.80;4.37;;;;;;;5.16;62.17;97585.31;8505309;27;20209;-72
2021/01/08 14:10:19;;;;;;;5.80;5.20;;;;;;;5.11;62.20;97592.34;8507069;27;20185;-72
2021/01/08 14:14:21;;;;;;;5.10;4.67;;;;;;;5.02;62.32;97601.97;8502445;27;20217;-71
2021/01/08 14:18:23;;;;;;;4.70;4.30;;;;;;;5.04;62.96;97602.75;8502862;27;20228;-71
2021/01/08 14:22:25;;;;;;;7.43;6.20;;;;;;;5.14;62.75;97608.50;8502080;27;20197;-72
2021/01/08 14:26:27;;;;;;;7.90;6.47;;;;;;;4.92;62.74;97615.94;8501452;27;20201;-72
2021/01/08 14:30:29;;;;;;;5.33;4.83;;;;;;;5.03;62.37;97611.34;8499928;27;20197;-72
2021/01/08 14:34:30;;;;;;;5.70;5.20;;;;;;;5.15;62.15;97622.16;8501866;27;20197;-73
2021/01/08 14:38:34;;;;;;;5.00;4.50;;;;;;;5.03;61.95;97628.50;8500937;27;20232;-72
2021/01/08 14:42:36;;;;;;;5.30;3.90;;;;;;;4.76;62.51;97630.91;8500332;27;20216;-73
2021/01/08 14:46:38;;;;;;;4.77;4.20;;;;;;;4.90;62.56;97633.94;8501066;27;20205;-73
2021/01/08 14:50:44;;;;;;;5.33;4.83;;;;;;;4.87;62.32;97634.03;8500628;27;20201;-73
2021/01/08 14:54:46;;;;;;;4.87;4.40;;;;;;;4.89;62.26;97637.41;8500298;27;20556;-73
2021/01/08 14:58:48;;;;;;;5.00;4.50;;;;;;;4.90;62.00;97645.94;8499819;27;20216;-74
2021/01/08 15:02:50;;;;;;;5.20;4.70;;;;;;;5.00;61.78;97649.94;8500273;27;20643;-73
2021/01/08 15:06:52;;;;;;;4.50;4.10;;;;;;;5.09;63.09;97646.28;8500282;27;20590;-74
2021/01/08 15:10:56;;;;;;;5.57;5.07;;;;;;;4.82;62.05;97660.69;8501528;27;20201;-74
2021/01/08 15:14:58;;;;;;;4.50;4.10;;;;;;;4.82;61.87;97650.44;8500416;27;20723;-73
2021/01/08 15:18:59;;;;;;;5.60;5.10;;;;;;;4.82;61.74;97658.97;8499876;27;20228;-74
2021/01/08 15:23:01;;;;;;;8.23;6.43;;;;;;;4.88;62.30;97660.53;8500253;27;20528;-75
2021/01/08 15:27:04;;;;;;;4.93;4.43;;;;;;;4.84;62.04;97672.59;8499060;27;20205;-68
2021/01/08 15:31:06;;;;;;;4.77;4.30;;;;;;;4.86;61.84;97673.41;8499339;27;20197;-70
2021/01/08 15:35:09;;;;;;;4.60;4.20;;;;;;;4.74;61.89;97671.16;8499705;27;20197;-69
2021/01/08 15:39:11;;;;;;;4.67;4.27;;;;;;;4.88;61.78;97676.75;8500326;27;20262;-70
2021/01/08 15:43:13;;;;;;;5.47;4.97;;;;;;;4.78;61.78;97683.03;8499437;27;20698;-69
2021/01/08 15:47:15;;;;;;;5.57;5.07;;;;;;;4.87;61.85;97681.94;8497901;27;20216;-68
2021/01/08 15:51:17;;;;;;;7.37;6.63;;;;;;;4.90;61.71;97679.28;8498636;27;20248;-68
2021/01/08 15:55:18;;;;;;;7.53;6.83;;;;;;;4.79;61.69;97684.69;8498237;27;20558;-68
2021/01/08 15:59:21;;;;;;;9.03;8.13;;;;;;;4.85;62.07;97691.38;8495862;27;20243;-71
2021/01/08 16:03:26;;;;;;;10.60;9.50;;;;;;;4.87;61.88;97695.63;8464460;28;20193;-72
2021/01/08 16:07:28;;;;;;;11.03;9.93;;;;;;;4.88;61.54;97699.84;8464848;28;20216;-72
2021/01/08 16:11:30;;;;;;;10.03;9.07;;;;;;;4.90;62.07;97700.66;8465829;28;20489;-70
2021/01/08 16:15:37;;;;;;;12.60;10.77;;;;;;;4.89;61.51;97701.56;8464491;28;20190;-70
2021/01/08 16:19:43;;;;;;;15.80;12.60;;;;;;;4.83;61.61;97701.69;8465497;28;20230;-70
2021/01/08 16:23:45;;;;;;;19.07;12.80;;;;;;;4.90;61.58;97707.53;8464130;28;20198;-70
2021/01/08 16:27:47;;;;;;;15.57;11.13;;;;;;;4.86;61.79;97709.31;8464544;28;20233;-70
2021/01/08 16:31:52;;;;;;;18.47;13.00;;;;;;;4.87;61.51;97717.84;8464361;28;20198;-69
2021/01/08 16:35:54;;;;;;;13.50;12.07;;;;;;;4.73;62.09;97723.34;8464711;28;20208;-69
2021/01/08 16:39:56;;;;;;;9.43;8.53;;;;;;;4.82;61.53;97727.41;8463848;28;20248;-70
2021/01/08 16:43:58;;;;;;;9.80;8.80;;;;;;;4.80;61.86;97732.56;8464389;28;20244;-69
2021/01/08 16:48:01;;;;;;;7.60;6.30;;;;;;;4.68;61.94;97730.28;8463292;28;20259;-69
2021/01/08 16:52:03;;;;;;;10.13;7.93;;;;;;;4.66;61.89;97738.06;8463876;28;20208;-68
2021/01/08 16:56:05;;;;;;;8.17;7.47;;;;;;;4.73;61.56;97732.75;8464212;28;20252;-68
2021/01/08 17:00:10;;;;;;;8.60;7.70;;;;;;;4.67;61.76;97739.72;8456120;28;20218;-69
2021/01/08 17:04:13;;;;;;;13.00;10.83;;;;;;;4.74;61.81;97737.00;8464122;28;20291;-69
2021/01/08 17:08:14;;;;;;;8.20;7.40;;;;;;;4.67;61.72;97739.72;8463561;28;20210;-68
2021/01/08 17:12:16;;;;;;;8.80;7.90;;;;;;;4.76;61.63;97745.50;8464007;28;20225;-70
2021/01/08 17:16:24;;;;;;;7.73;7.03;;;;;;;4.71;61.37;97755.88;8464048;28;20194;-70
2021/01/08 17:20:26;;;;;;;7.10;6.40;;;;;;;4.75;61.40;97761.78;8464114;28;20270;-71
2021/01/08 17:24:28;;;;;;;8.40;7.60;;;;;;;4.78;61.37;97766.81;8463970;28;20284;-69
2021/01/08 17:28:30;;;;;;;8.70;7.90;;;;;;;4.83;61.24;97777.81;8463521;28;20297;-70
2021/01/08 17:32:34;;;;;;;9.20;8.30;;;;;;;4.82;61.28;97771.88;8481766;28;20227;-70
2021/01/08 17:36:36;;;;;;;11.20;10.00;;;;;;;4.79;61.48;97777.06;8497336;28;20224;-70
2021/01/08 17:40:38;;;;;;;8.20;7.47;;;;;;;4.80;61.30;97778.75;8489221;28;20242;-68
2021/01/08 17:44:40;;;;;;;8.33;7.53;;;;;;;4.77;61.31;97783.94;8462784;28;20202;-69
2021/01/08 17:48:42;;;;;;;9.27;8.47;;;;;;;4.79;61.40;97789.06;8463453;28;20201;-69
2021/01/08 17:52:45;;;;;;;9.43;8.53;;;;;;;4.73;61.55;97796.91;8474941;27;20666;-69
2021/01/08 17:56:47;;;;;;;13.93;12.37;;;;;;;4.70;61.52;97805.50;8459920;27;20776;-71
2021/01/08 18:00:48;;;;;;;57.50;14.87;;;;;;;7.36;88.88;97810.81;8482335;27;20649;-70
2021/01/08 18:04:50;;;;;;;18.63;9.00;;;;;;;8.25;61.02;97808.56;8506871;27;20656;-71
2021/01/08 18:08:53;;;;;;;8.73;7.93;;;;;;;6.36;58.00;97805.41;8479201;27;20532;-69
2021/01/08 18:12:54;;;;;;;8.67;7.87;;;;;;;5.69;58.43;97816.69;8484107;27;20281;-69
2021/01/08 18:16:56;;;;;;;8.20;7.40;;;;;;;5.57;59.27;97811.91;8476342;27;20283;-69
2021/01/08 18:20:59;;;;;;;9.07;8.17;;;;;;;5.09;59.48;97808.00;8483550;27;20284;-69
2021/01/08 18:25:01;;;;;;;8.13;7.33;;;;;;;5.07;59.93;97820.03;8467728;28;20668;-69
2021/01/08 18:29:03;;;;;;;8.40;7.60;;;;;;;5.18;59.96;97817.16;8468010;27;20213;-69
2021/01/08 18:33:05;;;;;;;8.33;7.53;;;;;;;5.19;59.95;97826.56;8501784;27;20205;-69
2021/01/08 18:37:26;;;;;;;9.83;8.93;;;;;;;5.05;60.44;97832.06;8472400;27;20232;-69
2021/01/08 18:41:28;;;;;;;9.40;8.50;;;;;;;5.04;60.13;97823.50;8489044;27;20205;-69
2021/01/08 18:45:30;;;;;;;9.13;8.23;;;;;;;5.01;60.03;97827.88;8500811;27;20208;-69
2021/01/08 18:49:32;;;;;;;10.40;9.50;;;;;;;4.87;60.64;97834.19;8501262;27;20572;-69
2021/01/08 18:53:34;;;;;;;10.13;9.17;;;;;;;4.98;60.43;97833.91;8500563;27;20243;-69
2021/01/08 18:57:37;;;;;;;9.47;8.47;;;;;;;4.93;60.54;97837.47;8500815;27;20252;-69
2021/01/08 19:01:38;;;;;;;12.23;10.13;;;;;;;4.90;60.57;97838.41;8477300;27;20201;-69
2021/01/08 19:05:41;;;;;;;10.00;9.00;;;;;;;4.85;60.45;97840.22;8488631;27;20283;-69
2021/01/08 19:09:43;;;;;;;10.60;9.60;;;;;;;4.83;60.41;97845.38;8499531;27;20212;-69
2021/01/08 19:13:46;;;;;;;12.87;9.93;;;;;;;4.83;60.40;97844.53;8500023;27;20221;-69